createdAt,value
2018-06-15T00:00:47.865Z,12.9
2018-06-15T00:01:47.742Z,12.9
2018-06-15T00:02:48.059Z,12.9
2018-06-15T00:03:47.940Z,12.9
2018-06-15T00:04:47.823Z,13
2018-06-15T00:05:47.685Z,13
2018-06-15T00:06:47.544Z,13.1
2018-06-15T00:07:47.441Z,13.1
2018-06-15T00:08:47.325Z,13.1
2018-06-15T00:09:47.234Z,13
2018-06-15T00:10:47.104Z,13.1
2018-06-15T00:11:46.981Z,13.1
2018-06-15T00:12:47.274Z,13.1
2018-06-15T00:13:47.159Z,13.1
2018-06-15T00:14:47.028Z,13.1
2018-06-15T00:15:46.899Z,13.1
2018-06-15T00:16:46.798Z,13
2018-06-15T00:17:48.737Z,13.1
2018-06-15T00:18:48.885Z,13
2018-06-15T00:19:48.761Z,13.1
2018-06-15T00:20:48.625Z,13.1
2018-06-15T00:21:48.497Z,13.1
2018-06-15T00:22:48.788Z,13.1
2018-06-15T00:23:48.677Z,13.1
2018-06-15T00:24:48.563Z,13
2018-06-15T00:25:51.478Z,13
2018-06-15T00:26:51.354Z,12.9
2018-06-15T00:27:51.222Z,12.9
2018-06-15T00:28:51.110Z,12.8
2018-06-15T00:29:50.988Z,12.8
2018-06-15T00:30:50.868Z,12.7
2018-06-15T00:31:50.746Z,12.7
2018-06-15T00:32:51.048Z,12.7
2018-06-15T00:33:51.173Z,12.7
2018-06-15T00:34:51.061Z,12.7
2018-06-15T00:35:50.930Z,12.7
2018-06-15T00:36:50.807Z,12.6
2018-06-15T00:37:50.663Z,12.6
2018-06-15T00:38:50.541Z,12.6
2018-06-15T00:39:50.436Z,12.5
2018-06-15T00:40:50.290Z,12.5
2018-06-15T00:41:50.145Z,12.4
2018-06-15T00:42:50.440Z,12.4
2018-06-15T00:43:50.309Z,12.4
2018-06-15T00:44:50.209Z,12.4
2018-06-15T00:45:50.076Z,12.3
2018-06-15T00:46:49.990Z,12.4
2018-06-15T00:47:49.859Z,12.3
2018-06-15T00:48:49.800Z,12.3
2018-06-15T00:49:49.845Z,12.4
2018-06-15T00:50:49.737Z,12.4
2018-06-15T00:51:49.620Z,12.4
2018-06-15T00:52:49.888Z,12.4
2018-06-15T00:53:49.777Z,12.4
2018-06-15T00:54:49.648Z,12.4
2018-06-15T00:55:49.560Z,12.3
2018-06-15T00:56:49.443Z,12.3
2018-06-15T00:57:52.091Z,12.3
2018-06-15T00:58:51.975Z,12.3
2018-06-15T00:59:51.851Z,12.3
2018-06-15T01:00:51.730Z,12.3
2018-06-15T01:01:51.595Z,12.3
2018-06-15T01:02:51.875Z,12.3
2018-06-15T01:03:51.763Z,12.3
2018-06-15T01:04:51.649Z,12.3
2018-06-15T01:05:51.525Z,12.3
2018-06-15T01:06:51.403Z,12.2
2018-06-15T01:07:51.278Z,12.3
2018-06-15T01:08:51.142Z,12.2
2018-06-15T01:09:51.014Z,12.2
2018-06-15T01:10:50.919Z,12.3
2018-06-15T01:11:51.004Z,12.2
2018-06-15T01:12:51.500Z,12.2
2018-06-15T01:13:51.371Z,12.2
2018-06-15T01:14:51.240Z,12.2
2018-06-15T01:15:51.128Z,12.2
2018-06-15T01:16:51.014Z,12.2
2018-06-15T01:17:50.888Z,12.2
2018-06-15T01:18:50.763Z,12.2
2018-06-15T01:19:50.631Z,12.1
2018-06-15T01:20:50.536Z,12.1
2018-06-15T01:21:50.414Z,12.1
2018-06-15T01:22:50.743Z,12.2
2018-06-15T01:23:50.612Z,12.1
2018-06-15T01:24:50.480Z,12.1
2018-06-15T01:25:50.423Z,12.1
2018-06-15T01:26:50.287Z,12.1
2018-06-15T01:27:50.162Z,12.1
2018-06-15T01:28:50.038Z,12.1
2018-06-15T01:29:49.923Z,12
2018-06-15T01:30:49.774Z,12
2018-06-15T01:31:49.708Z,12
2018-06-15T01:32:50.014Z,12
2018-06-15T01:33:49.888Z,12
2018-06-15T01:34:49.772Z,11.9
2018-06-15T01:35:49.647Z,11.9
2018-06-15T01:36:49.569Z,12
2018-06-15T01:37:49.464Z,12
2018-06-15T01:38:49.329Z,12
2018-06-15T01:39:51.870Z,12
2018-06-15T01:40:51.731Z,12
2018-06-15T01:41:51.633Z,12
2018-06-15T01:42:51.950Z,12
2018-06-15T01:43:51.821Z,12
2018-06-15T01:44:51.715Z,12
2018-06-15T01:45:51.599Z,12
2018-06-15T01:46:51.735Z,12
2018-06-15T01:47:51.586Z,12
2018-06-15T01:48:51.455Z,12
2018-06-15T01:49:51.339Z,12.1
2018-06-15T01:50:51.240Z,12
2018-06-15T01:51:51.125Z,12.1
2018-06-15T01:52:51.420Z,11.9
2018-06-15T01:53:51.287Z,11.9
2018-06-15T01:54:51.188Z,11.9
2018-06-15T01:55:51.063Z,11.9
2018-06-15T01:56:53.610Z,11.9
2018-06-15T01:57:55.975Z,11.8
2018-06-15T01:58:55.853Z,11.7
2018-06-15T01:59:55.741Z,11.7
2018-06-15T02:00:55.620Z,11.8
2018-06-15T02:01:57.964Z,11.8
2018-06-15T02:02:58.242Z,11.8
2018-06-15T02:04:00.892Z,11.8
2018-06-15T02:05:00.779Z,11.8
2018-06-15T02:06:00.680Z,11.7
2018-06-15T02:07:00.555Z,11.7
2018-06-15T02:08:00.428Z,11.8
2018-06-15T02:09:00.305Z,11.8
2018-06-15T02:10:00.178Z,11.8
2018-06-15T02:11:00.041Z,11.9
2018-06-15T02:11:59.927Z,11.9
2018-06-15T02:13:00.242Z,11.7
2018-06-15T02:14:00.119Z,11.7
2018-06-15T02:15:00.001Z,11.7
2018-06-15T02:15:59.900Z,11.6
2018-06-15T02:17:02.623Z,11.6
2018-06-15T02:18:02.528Z,11.6
2018-06-15T02:19:02.404Z,11.6
2018-06-15T02:20:02.283Z,11.6
2018-06-15T02:21:02.180Z,11.6
2018-06-15T02:22:02.074Z,11.5
2018-06-15T02:23:02.388Z,11.6
2018-06-15T02:24:02.280Z,11.6
2018-06-15T02:25:02.160Z,11.5
2018-06-15T02:26:02.027Z,11.5
2018-06-15T02:27:01.912Z,11.5
2018-06-15T02:28:01.773Z,11.6
2018-06-15T02:29:01.683Z,11.6
2018-06-15T02:30:01.566Z,11.6
2018-06-15T02:31:01.484Z,11.6
2018-06-15T02:32:01.398Z,11.6
2018-06-15T02:33:01.675Z,11.6
2018-06-15T02:34:01.545Z,11.6
2018-06-15T02:35:01.486Z,11.5
2018-06-15T02:36:01.403Z,11.4
2018-06-15T02:37:01.427Z,11.5
2018-06-15T02:38:01.314Z,11.4
2018-06-15T02:39:01.193Z,11.4
2018-06-15T02:40:03.679Z,11.3
2018-06-15T02:41:03.577Z,11.2
2018-06-15T02:42:03.504Z,11.1
2018-06-15T02:43:03.813Z,11.1
2018-06-15T02:44:03.691Z,11.1
2018-06-15T02:45:03.603Z,11.1
2018-06-15T02:46:03.502Z,11.2
2018-06-15T02:47:06.392Z,11.2
2018-06-15T02:48:06.307Z,11.3
2018-06-15T02:49:06.175Z,11.3
2018-06-15T02:50:06.055Z,11.3
2018-06-15T02:51:05.954Z,11.4
2018-06-15T02:52:05.844Z,11.3
2018-06-15T02:53:06.151Z,11.3
2018-06-15T02:54:06.089Z,11.3
2018-06-15T02:55:06.003Z,11.3
2018-06-15T02:56:05.882Z,11.3
2018-06-15T02:57:05.768Z,11.3
2018-06-15T02:58:05.647Z,11.3
2018-06-15T02:59:05.876Z,11.3
2018-06-15T03:00:06.215Z,11.3
2018-06-15T03:01:06.102Z,11.3
2018-06-15T03:02:06.459Z,11.3
2018-06-15T03:03:07.785Z,11.1
2018-06-15T03:04:07.661Z,11.1
2018-06-15T03:05:07.575Z,11.2
2018-06-15T03:06:07.919Z,11.2
2018-06-15T03:07:08.021Z,11.3
2018-06-15T03:08:07.920Z,11.3
2018-06-15T03:09:07.792Z,11.4
2018-06-15T03:10:07.705Z,11.4
2018-06-15T03:11:07.615Z,11.4
2018-06-15T03:12:07.483Z,11.4
2018-06-15T03:13:07.843Z,11.4
2018-06-15T03:14:07.720Z,11.4
2018-06-15T03:15:07.598Z,11.4
2018-06-15T03:16:07.474Z,11.4
2018-06-15T03:17:07.356Z,11.4
2018-06-15T03:18:07.239Z,11.5
2018-06-15T03:19:07.146Z,11.5
2018-06-15T03:20:07.031Z,11.5
2018-06-15T03:21:06.940Z,11.5
2018-06-15T03:22:06.821Z,11.4
2018-06-15T03:23:07.138Z,11.4
2018-06-15T03:24:07.010Z,11.4
2018-06-15T03:25:07.051Z,11.4
2018-06-15T03:26:07.222Z,11.4
2018-06-15T03:27:07.092Z,11.3
2018-06-15T03:28:06.961Z,11.2
2018-06-15T03:29:06.837Z,11.1
2018-06-15T03:30:06.718Z,11.2
2018-06-15T03:31:06.604Z,11.2
2018-06-15T03:32:06.529Z,11.1
2018-06-15T03:33:06.807Z,11.1
2018-06-15T03:34:06.684Z,11.2
2018-06-15T03:35:06.794Z,11.2
2018-06-15T03:36:06.675Z,11.3
2018-06-15T03:37:06.560Z,11.2
2018-06-15T03:38:06.446Z,11.2
2018-06-15T03:39:06.321Z,11.2
2018-06-15T03:40:06.197Z,11.2
2018-06-15T03:41:06.082Z,11.2
2018-06-15T03:42:05.972Z,11.2
2018-06-15T03:43:06.303Z,11.2
2018-06-15T03:44:06.185Z,11.3
2018-06-15T03:45:06.071Z,11.2
2018-06-15T03:46:05.955Z,11.3
2018-06-15T03:47:05.814Z,11.3
2018-06-15T03:48:05.722Z,11.3
2018-06-15T03:49:05.598Z,11.3
2018-06-15T03:50:05.476Z,11.3
2018-06-15T03:51:05.341Z,11.3
2018-06-15T03:52:05.208Z,11.4
2018-06-15T03:53:05.539Z,11.4
2018-06-15T03:54:05.422Z,11.3
2018-06-15T03:55:05.301Z,11.3
2018-06-15T03:56:05.169Z,11.3
2018-06-15T03:57:05.045Z,11.3
2018-06-15T03:58:04.936Z,11.3
2018-06-15T03:59:04.838Z,11.3
2018-06-15T04:00:04.711Z,11.3
2018-06-15T04:01:04.593Z,11.3
2018-06-15T04:02:05.462Z,11.3
2018-06-15T04:03:05.823Z,11.3
2018-06-15T04:04:05.667Z,11.3
2018-06-15T04:05:05.560Z,11.2
2018-06-15T04:06:05.427Z,11.3
2018-06-15T04:07:05.295Z,11.2
2018-06-15T04:08:05.165Z,11.3
2018-06-15T04:09:05.037Z,11.2
2018-06-15T04:10:04.922Z,11.2
2018-06-15T04:11:04.794Z,11.2
2018-06-15T04:12:04.660Z,11.3
2018-06-15T04:13:05.196Z,11.3
2018-06-15T04:14:05.576Z,11.3
2018-06-15T04:15:05.460Z,11.3
2018-06-15T04:16:05.349Z,11.3
2018-06-15T04:17:05.225Z,11.3
2018-06-15T04:18:05.138Z,11.4
2018-06-15T04:19:05.014Z,11.5
2018-06-15T04:20:04.892Z,11.6
2018-06-15T04:21:04.767Z,11.6
2018-06-15T04:22:04.637Z,11.6
2018-06-15T04:23:04.910Z,11.7
2018-06-15T04:24:04.811Z,11.7
2018-06-15T04:25:04.681Z,11.6
2018-06-15T04:26:04.545Z,11.6
2018-06-15T04:27:04.425Z,11.6
2018-06-15T04:28:04.293Z,11.7
2018-06-15T04:29:04.171Z,11.7
2018-06-15T04:30:04.093Z,11.7
2018-06-15T04:31:07.066Z,11.7
2018-06-15T04:32:06.941Z,11.7
2018-06-15T04:33:07.219Z,11.7
2018-06-15T04:34:07.119Z,11.7
2018-06-15T04:35:07.008Z,11.7
2018-06-15T04:36:06.888Z,11.7
2018-06-15T04:37:06.780Z,11.8
2018-06-15T04:38:06.655Z,11.8
2018-06-15T04:39:06.561Z,11.8
2018-06-15T04:40:06.475Z,11.7
2018-06-15T04:41:06.361Z,11.8
2018-06-15T04:42:08.429Z,11.9
2018-06-15T04:43:08.736Z,11.8
2018-06-15T04:44:08.610Z,11.9
2018-06-15T04:45:08.498Z,11.9
2018-06-15T04:46:08.384Z,11.8
2018-06-15T04:47:08.247Z,11.8
2018-06-15T04:48:08.108Z,11.8
2018-06-15T04:49:07.981Z,11.9
2018-06-15T04:50:07.864Z,11.9
2018-06-15T04:51:07.775Z,11.9
2018-06-15T04:52:07.672Z,11.9
2018-06-15T04:53:07.948Z,11.8
2018-06-15T04:54:07.826Z,11.9
2018-06-15T04:55:07.751Z,11.9
2018-06-15T04:56:07.640Z,11.9
2018-06-15T04:57:07.505Z,12
2018-06-15T04:58:07.373Z,12
2018-06-15T04:59:07.243Z,12.1
2018-06-15T05:00:07.108Z,12.1
2018-06-15T05:01:07.011Z,12.1
2018-06-15T05:02:06.894Z,12.1
2018-06-15T05:03:07.173Z,12.1
2018-06-15T05:04:07.061Z,12.1
2018-06-15T05:05:06.944Z,12.1
2018-06-15T05:06:06.852Z,12.2
2018-06-15T05:07:06.717Z,12.2
2018-06-15T05:08:06.811Z,12.2
2018-06-15T05:09:06.718Z,12.2
2018-06-15T05:10:06.724Z,12.3
2018-06-15T05:11:06.632Z,12.3
2018-06-15T05:12:06.536Z,12.3
2018-06-15T05:13:06.860Z,12.4
2018-06-15T05:14:09.219Z,12.5
2018-06-15T05:15:09.100Z,12.5
2018-06-15T05:16:08.980Z,12.5
2018-06-15T05:17:08.954Z,12.5
2018-06-15T05:18:08.917Z,12.5
2018-06-15T05:19:08.795Z,12.6
2018-06-15T05:20:08.935Z,12.6
2018-06-15T05:21:08.840Z,12.7
2018-06-15T05:22:08.715Z,12.7
2018-06-15T05:23:11.263Z,12.8
2018-06-15T05:24:11.166Z,12.9
2018-06-15T05:25:11.052Z,13
2018-06-15T05:26:10.939Z,13.1
2018-06-15T05:27:10.858Z,13.2
2018-06-15T05:28:10.718Z,13.3
2018-06-15T05:29:10.581Z,13.5
2018-06-15T05:30:10.455Z,13.6
2018-06-15T05:31:10.319Z,13.8
2018-06-15T05:32:10.219Z,14
2018-06-15T05:33:10.514Z,14.2
2018-06-15T05:34:10.385Z,14.4
2018-06-15T05:35:10.275Z,14.5
2018-06-15T05:36:10.222Z,14.7
2018-06-15T05:37:10.116Z,14.8
2018-06-15T05:38:10.012Z,15
2018-06-15T05:39:09.899Z,15.1
2018-06-15T05:40:09.789Z,15.4
2018-06-15T05:41:09.661Z,15.6
2018-06-15T05:42:09.537Z,15.9
2018-06-15T05:43:10.153Z,15.9
2018-06-15T05:44:10.030Z,16.1
2018-06-15T05:45:09.904Z,16.2
2018-06-15T05:46:09.799Z,16.4
2018-06-15T05:47:09.687Z,16.5
2018-06-15T05:48:09.619Z,16.7
2018-06-15T05:49:09.544Z,16.7
2018-06-15T05:50:09.448Z,16.9
2018-06-15T05:51:09.308Z,16.9
2018-06-15T05:52:09.173Z,16.8
2018-06-15T05:53:09.466Z,16.9
2018-06-15T05:54:09.348Z,16.9
2018-06-15T05:55:11.909Z,17.1
2018-06-15T05:56:11.817Z,17.4
2018-06-15T05:57:11.707Z,17.6
2018-06-15T05:58:14.624Z,17.8
2018-06-15T05:59:14.507Z,18
2018-06-15T06:00:14.394Z,18.1
2018-06-15T06:01:14.281Z,18
2018-06-15T06:02:14.170Z,18.1
2018-06-15T06:03:14.502Z,18.1
2018-06-15T06:04:14.742Z,18.3
2018-06-15T06:05:15.217Z,18.4
2018-06-15T06:06:15.090Z,18.4
2018-06-15T06:07:14.970Z,18.5
2018-06-15T06:08:14.872Z,18.5
2018-06-15T06:09:14.755Z,18.5
2018-06-15T06:10:14.653Z,18.5
2018-06-15T06:11:14.538Z,18.5
2018-06-15T06:12:14.421Z,18.8
2018-06-15T06:13:14.952Z,18.8
2018-06-15T06:14:14.871Z,18.7
2018-06-15T06:15:14.752Z,18.7
2018-06-15T06:16:14.625Z,18.8
2018-06-15T06:17:14.506Z,18.7
2018-06-15T06:18:14.390Z,18.8
2018-06-15T06:19:14.302Z,19
2018-06-15T06:20:14.174Z,19.3
2018-06-15T06:21:14.055Z,19
2018-06-15T06:22:13.948Z,18.9
2018-06-15T06:23:14.246Z,19
2018-06-15T06:24:14.151Z,19.3
2018-06-15T06:25:14.059Z,19.5
2018-06-15T06:26:13.945Z,19.6
2018-06-15T06:27:13.835Z,19.5
2018-06-15T06:28:13.693Z,19.7
2018-06-15T06:29:13.572Z,19.9
2018-06-15T06:30:13.481Z,19.9
2018-06-15T06:31:13.400Z,20.1
2018-06-15T06:32:13.285Z,20.2
2018-06-15T06:33:13.569Z,20
2018-06-15T06:34:13.660Z,19.8
2018-06-15T06:35:13.594Z,19.8
2018-06-15T06:36:13.482Z,20
2018-06-15T06:37:13.365Z,20.2
2018-06-15T06:38:13.240Z,20.1
2018-06-15T06:39:13.155Z,20.4
2018-06-15T06:40:13.060Z,20.6
2018-06-15T06:41:12.949Z,20.7
2018-06-15T06:42:12.849Z,20.8
2018-06-15T06:43:13.138Z,20.7
2018-06-15T06:44:12.999Z,20.9
2018-06-15T06:45:12.961Z,20.9
2018-06-15T06:46:12.874Z,20.6
2018-06-15T06:47:12.769Z,20.5
2018-06-15T06:48:12.639Z,20.2
2018-06-15T06:49:12.514Z,20.4
2018-06-15T06:50:12.631Z,20.5
2018-06-15T06:51:12.525Z,20.6
2018-06-15T06:52:12.408Z,20.9
2018-06-15T06:53:12.736Z,21.2
2018-06-15T06:54:12.608Z,21.2
2018-06-15T06:55:12.485Z,21.2
2018-06-15T06:56:12.397Z,21.3
2018-06-15T06:57:12.277Z,21.1
2018-06-15T06:58:12.157Z,21
2018-06-15T06:59:12.038Z,21.1
2018-06-15T07:00:11.954Z,21.5
2018-06-15T07:01:11.846Z,21.5
2018-06-15T07:02:11.768Z,21
2018-06-15T07:03:12.084Z,20.8
2018-06-15T07:04:11.963Z,21.1
2018-06-15T07:05:14.886Z,21.1
2018-06-15T07:06:15.129Z,20.9
2018-06-15T07:07:15.177Z,21.1
2018-06-15T07:08:15.069Z,21.3
2018-06-15T07:09:14.967Z,21.1
2018-06-15T07:10:14.877Z,21
2018-06-15T07:11:14.784Z,21.1
2018-06-15T07:12:14.658Z,21
2018-06-15T07:13:15.170Z,21.4
2018-06-15T07:14:15.211Z,21.4
2018-06-15T07:15:15.092Z,21.7
2018-06-15T07:16:14.994Z,21.7
2018-06-15T07:17:14.868Z,21
2018-06-15T07:18:17.289Z,20.7
2018-06-15T07:19:17.175Z,20.8
2018-06-15T07:20:17.051Z,20.9
2018-06-15T07:21:16.922Z,21
2018-06-15T07:22:16.824Z,21.1
2018-06-15T07:23:17.183Z,21.2
2018-06-15T07:24:17.074Z,21.3
2018-06-15T07:25:16.962Z,21.4
2018-06-15T07:26:16.860Z,21.4
2018-06-15T07:27:16.840Z,21.2
2018-06-15T07:28:16.722Z,20.9
2018-06-15T07:29:19.648Z,20.6
2018-06-15T07:30:19.541Z,20.4
2018-06-15T07:31:19.415Z,20.6
2018-06-15T07:32:19.299Z,20.7
2018-06-15T07:33:19.613Z,20.9
2018-06-15T07:34:19.522Z,20.9
2018-06-15T07:35:19.402Z,21
2018-06-15T07:36:19.547Z,21.3
2018-06-15T07:37:19.458Z,21.4
2018-06-15T07:38:19.338Z,21.5
2018-06-15T07:39:19.250Z,21.6
2018-06-15T07:40:19.151Z,21.5
2018-06-15T07:41:19.034Z,21.3
2018-06-15T07:42:18.939Z,21.7
2018-06-15T07:43:19.457Z,21.8
2018-06-15T07:44:19.352Z,22.1
2018-06-15T07:45:19.275Z,22.4
2018-06-15T07:46:19.170Z,22.4
2018-06-15T07:47:19.333Z,22.2
2018-06-15T07:48:20.216Z,22
2018-06-15T07:49:20.114Z,22
2018-06-15T07:50:20.040Z,21.9
2018-06-15T07:51:19.936Z,21.8
2018-06-15T07:52:19.868Z,21.8
2018-06-15T07:53:20.205Z,21.7
2018-06-15T07:54:20.127Z,21.7
2018-06-15T07:55:22.324Z,22
2018-06-15T07:56:22.208Z,21.9
2018-06-15T07:57:22.097Z,21.7
2018-06-15T07:58:22.000Z,21.6
2018-06-15T07:59:21.977Z,21.2
2018-06-15T08:00:21.953Z,21.4
2018-06-15T08:01:24.890Z,21.6
2018-06-15T08:02:24.772Z,21.7
2018-06-15T08:03:25.073Z,21.9
2018-06-15T08:04:24.961Z,22.3
2018-06-15T08:05:24.891Z,22.6
2018-06-15T08:06:24.787Z,22.4
2018-06-15T08:07:24.676Z,22.3
2018-06-15T08:08:25.048Z,22.2
2018-06-15T08:09:24.926Z,22.2
2018-06-15T08:10:24.819Z,22.1
2018-06-15T08:11:24.719Z,22
2018-06-15T08:12:24.599Z,22.1
2018-06-15T08:13:24.936Z,22.5
2018-06-15T08:14:24.821Z,22.6
2018-06-15T08:15:24.732Z,22.6
2018-06-15T08:16:24.616Z,22.2
2018-06-15T08:17:24.719Z,22
2018-06-15T08:18:24.591Z,22.1
2018-06-15T08:19:24.476Z,22.4
2018-06-15T08:20:24.356Z,22.5
2018-06-15T08:21:24.312Z,22.5
2018-06-15T08:22:24.221Z,22.5
2018-06-15T08:23:24.501Z,22.5
2018-06-15T08:24:24.379Z,22.3
2018-06-15T08:25:24.256Z,22.4
2018-06-15T08:26:24.134Z,22.2
2018-06-15T08:27:24.003Z,22.2
2018-06-15T08:28:23.928Z,22.3
2018-06-15T08:29:23.819Z,22.4
2018-06-15T08:30:23.700Z,22.3
2018-06-15T08:31:23.586Z,22
2018-06-15T08:32:23.472Z,21.6
2018-06-15T08:33:29.557Z,21.7
2018-06-15T08:34:29.430Z,21.3
2018-06-15T08:35:32.177Z,21
2018-06-15T08:36:32.118Z,21.3
2018-06-15T08:37:31.981Z,21.6
2018-06-15T08:38:31.877Z,21.9
2018-06-15T08:39:31.744Z,22.3
2018-06-15T08:40:31.885Z,22.4
2018-06-15T08:41:31.782Z,22.2
2018-06-15T08:42:31.657Z,22.2
2018-06-15T08:43:32.012Z,22.5
2018-06-15T08:44:31.890Z,22.4
2018-06-15T08:45:31.756Z,22.5
2018-06-15T08:46:31.655Z,22.5
2018-06-15T08:47:31.540Z,22.5
2018-06-15T08:48:31.447Z,22.5
2018-06-15T08:49:31.339Z,22.6
2018-06-15T08:50:31.216Z,22.4
2018-06-15T08:51:31.082Z,22.3
2018-06-15T08:52:30.958Z,22.1
2018-06-15T08:53:31.232Z,22.2
2018-06-15T08:54:31.121Z,22.3
2018-06-15T08:55:31.025Z,22.2
2018-06-15T08:56:31.131Z,22.2
2018-06-15T08:57:31.022Z,22.5
2018-06-15T08:58:30.899Z,22.7
2018-06-15T08:59:30.836Z,22.7
2018-06-15T09:00:30.734Z,22.4
2018-06-15T09:01:30.601Z,22.6
2018-06-15T09:02:30.477Z,22.7
2018-06-15T09:03:33.757Z,22.3
2018-06-15T09:04:33.655Z,22.1
2018-06-15T09:05:33.533Z,21.6
2018-06-15T09:06:37.245Z,21.6
2018-06-15T09:07:37.369Z,21.7
2018-06-15T09:08:37.263Z,21.5
2018-06-15T09:09:37.177Z,21.7
2018-06-15T09:10:37.059Z,21.8
2018-06-15T09:11:36.940Z,21.9
2018-06-15T09:12:37.818Z,21.8
2018-06-15T09:13:38.097Z,22
2018-06-15T09:14:37.973Z,22.1
2018-06-15T09:15:37.893Z,22.3
2018-06-15T09:16:38.093Z,22.4
2018-06-15T09:17:37.984Z,22.4
2018-06-15T09:18:37.879Z,22.1
2018-06-15T09:19:37.779Z,22.1
2018-06-15T09:20:37.669Z,22.2
2018-06-15T09:21:37.532Z,22.1
2018-06-15T09:22:40.113Z,22.1
2018-06-15T09:23:40.415Z,22
2018-06-15T09:24:43.317Z,21.7
2018-06-15T09:25:43.204Z,21.5
2018-06-15T09:26:43.301Z,21.8
2018-06-15T09:27:43.165Z,21.9
2018-06-15T09:28:43.034Z,21.9
2018-06-15T09:29:42.906Z,22
2018-06-15T09:30:43.101Z,22.1
2018-06-15T09:31:43.029Z,22.1
2018-06-15T09:32:43.194Z,22
2018-06-15T09:33:43.873Z,21.8
2018-06-15T09:34:43.740Z,21.8
2018-06-15T09:35:43.641Z,21.7
2018-06-15T09:36:43.535Z,21.8
2018-06-15T09:37:43.426Z,21.9
2018-06-15T09:38:43.314Z,21.7
2018-06-15T09:39:43.410Z,21.8
2018-06-15T09:40:43.301Z,21.8
2018-06-15T09:41:43.182Z,21.8
2018-06-15T09:42:43.066Z,21.9
2018-06-15T09:43:43.375Z,22.1
2018-06-15T09:44:43.245Z,22.1
2018-06-15T09:45:43.148Z,22.3
2018-06-15T09:46:43.028Z,22.4
2018-06-15T09:47:42.919Z,22.5
2018-06-15T09:48:42.806Z,22.3
2018-06-15T09:49:42.696Z,22
2018-06-15T09:50:42.655Z,21.8
2018-06-15T09:51:42.520Z,21.7
2018-06-15T09:52:42.383Z,21.7
2018-06-15T09:53:42.715Z,21.7
2018-06-15T09:54:42.607Z,21.7
2018-06-15T09:55:45.112Z,21.8
2018-06-15T09:56:44.993Z,21.7
2018-06-15T09:57:44.875Z,21.9
2018-06-15T09:58:44.739Z,21.8
2018-06-15T09:59:44.616Z,21.8
2018-06-15T10:00:44.531Z,21.6
2018-06-15T10:01:44.412Z,21.7
2018-06-15T10:02:44.293Z,21.7
2018-06-15T10:03:44.581Z,21.5
2018-06-15T10:04:44.467Z,20.9
2018-06-15T10:05:44.359Z,21.1
2018-06-15T10:06:44.256Z,21.3
2018-06-15T10:07:44.160Z,21.4
2018-06-15T10:08:44.264Z,21.5
2018-06-15T10:09:44.133Z,21.5
2018-06-15T10:10:44.017Z,21.4
2018-06-15T10:11:43.905Z,21.4
2018-06-15T10:12:43.810Z,21.5
2018-06-15T10:13:55.673Z,21.4
2018-06-15T10:14:59.551Z,21.4
2018-06-15T10:15:59.427Z,21.1
2018-06-15T10:16:59.312Z,21.2
2018-06-15T10:17:59.285Z,21.3
2018-06-15T10:18:59.169Z,21.4
2018-06-15T10:19:59.026Z,21.3
2018-06-15T10:20:58.957Z,21.4
2018-06-15T10:21:59.083Z,21.4
2018-06-15T10:22:58.999Z,21.2
2018-06-15T10:23:59.331Z,21
2018-06-15T10:24:59.243Z,21.2
2018-06-15T10:25:59.135Z,21.2
2018-06-15T10:27:02.892Z,21.2
2018-06-15T10:28:02.831Z,21.2
2018-06-15T10:29:02.710Z,21.4
2018-06-15T10:30:02.579Z,21.5
2018-06-15T10:31:02.499Z,21.5
2018-06-15T10:32:02.416Z,21.6
2018-06-15T10:33:02.368Z,21.8
2018-06-15T10:34:03.033Z,21.8
2018-06-15T10:35:02.935Z,21.8
2018-06-15T10:36:02.819Z,21.9
2018-06-15T10:37:02.709Z,21.9
2018-06-15T10:38:02.867Z,21.8
2018-06-15T10:39:02.765Z,21.8
2018-06-15T10:40:02.645Z,21.7
2018-06-15T10:41:02.752Z,21.7
2018-06-15T10:42:02.628Z,21.8
2018-06-15T10:43:02.511Z,21.8
2018-06-15T10:44:03.135Z,21.7
2018-06-15T10:45:03.059Z,21.7
2018-06-15T10:46:02.938Z,21.6
2018-06-15T10:47:02.813Z,21.4
2018-06-15T10:48:02.699Z,21.2
2018-06-15T10:49:02.590Z,21
2018-06-15T10:50:02.712Z,20.6
2018-06-15T10:51:02.823Z,20.3
2018-06-15T10:52:02.716Z,20.4
2018-06-15T10:53:02.593Z,20.5
2018-06-15T10:54:03.916Z,20.3
2018-06-15T10:55:03.814Z,20.4
2018-06-15T10:56:03.713Z,20.6
2018-06-15T10:57:03.599Z,20.7
2018-06-15T10:58:03.469Z,20.7
2018-06-15T10:59:03.347Z,20.8
2018-06-15T11:00:03.462Z,21
2018-06-15T11:01:03.341Z,21.1
2018-06-15T11:02:03.232Z,20.7
2018-06-15T11:03:03.109Z,20.5
2018-06-15T11:04:03.444Z,20.6
2018-06-15T11:05:03.330Z,20.8
2018-06-15T11:06:03.235Z,20.5
2018-06-15T11:07:03.119Z,20.5
2018-06-15T11:08:03.017Z,20.3
2018-06-15T11:09:03.077Z,20
2018-06-15T11:10:03.232Z,20.1
2018-06-15T11:11:03.133Z,20.2
2018-06-15T11:12:03.011Z,20.4
2018-06-15T11:13:02.893Z,20.6
2018-06-15T11:14:03.199Z,20.7
2018-06-15T11:15:03.073Z,20.8
2018-06-15T11:16:02.989Z,20.9
2018-06-15T11:17:02.868Z,21
2018-06-15T11:18:02.749Z,21.1
2018-06-15T11:19:02.619Z,21.1
2018-06-15T11:20:02.515Z,21.2
2018-06-15T11:21:02.629Z,21.1
2018-06-15T11:22:02.502Z,21.1
2018-06-15T11:23:02.685Z,21
2018-06-15T11:24:03.212Z,20.9
2018-06-15T11:25:03.109Z,20.9
2018-06-15T11:26:02.987Z,20.8
2018-06-15T11:27:02.893Z,20.8
2018-06-15T11:28:02.791Z,20.8
2018-06-15T11:29:02.668Z,20.9
2018-06-15T11:30:02.523Z,20.9
2018-06-15T11:31:02.680Z,21.1
2018-06-15T11:32:02.688Z,21.1
2018-06-15T11:33:03.225Z,21
2018-06-15T11:34:03.523Z,21.2
2018-06-15T11:35:03.422Z,21.4
2018-06-15T11:36:03.322Z,21.4
2018-06-15T11:37:03.221Z,21.3
2018-06-15T11:38:03.109Z,20.7
2018-06-15T11:39:05.951Z,20.7
2018-06-15T11:40:05.848Z,20.8
2018-06-15T11:41:06.004Z,20.9
2018-06-15T11:42:06.346Z,21
2018-06-15T11:43:06.233Z,21.2
2018-06-15T11:44:06.559Z,21.1
2018-06-15T11:45:06.498Z,21.1
2018-06-15T11:46:06.367Z,21
2018-06-15T11:47:06.245Z,21
2018-06-15T11:48:06.176Z,20.9
2018-06-15T11:49:08.970Z,20.9
2018-06-15T11:50:08.845Z,20.9
2018-06-15T11:51:08.730Z,21.1
2018-06-15T11:52:11.801Z,21.2
2018-06-15T11:53:11.775Z,21.4
2018-06-15T11:54:12.113Z,21.5
2018-06-15T11:55:11.999Z,21.5
2018-06-15T11:56:11.896Z,21.5
2018-06-15T11:57:11.813Z,21.4
2018-06-15T11:58:11.730Z,21.1
2018-06-15T11:59:11.619Z,21.1
2018-06-15T12:00:11.729Z,21.1
2018-06-15T12:01:11.613Z,21
2018-06-15T12:02:11.485Z,20.8
2018-06-15T12:03:12.053Z,20.9
2018-06-15T12:04:12.425Z,20.9
2018-06-15T12:05:12.315Z,20.9
2018-06-15T12:06:12.429Z,20.9
2018-06-15T12:07:12.305Z,20.6
2018-06-15T12:08:12.208Z,20.6
2018-06-15T12:09:12.073Z,20.8
2018-06-15T12:10:11.977Z,20.8
2018-06-15T12:11:11.897Z,20.8
2018-06-15T12:12:11.843Z,20.9
2018-06-15T12:13:11.932Z,20.9
2018-06-15T12:14:12.248Z,20.9
2018-06-15T12:15:12.148Z,20.9
2018-06-15T12:16:12.038Z,21
2018-06-15T12:17:11.911Z,21
2018-06-15T12:18:14.634Z,20.9
2018-06-15T12:19:14.776Z,20.8
2018-06-15T12:20:14.656Z,20.9
2018-06-15T12:21:14.563Z,20.9
2018-06-15T12:22:14.503Z,20.9
2018-06-15T12:23:14.402Z,20.9
2018-06-15T12:24:14.711Z,20.9
2018-06-15T12:25:15.271Z,20.9
2018-06-15T12:26:15.163Z,20.8
2018-06-15T12:27:15.075Z,20.7
2018-06-15T12:28:15.611Z,20.7
2018-06-15T12:29:15.487Z,20.8
2018-06-15T12:30:15.394Z,20.9
2018-06-15T12:31:15.266Z,20.8
2018-06-15T12:32:15.170Z,20.9
2018-06-15T12:33:15.055Z,20.8
2018-06-15T12:34:15.801Z,20.7
2018-06-15T12:35:15.944Z,20.6
2018-06-15T12:36:15.829Z,20.5
2018-06-15T12:37:15.748Z,20.5
2018-06-15T12:38:15.773Z,20.5
2018-06-15T12:39:15.644Z,20.3
2018-06-15T12:40:15.511Z,20.3
2018-06-15T12:41:15.655Z,20.4
2018-06-15T12:42:15.538Z,20.5
2018-06-15T12:43:15.422Z,20.5
2018-06-15T12:44:15.716Z,20.5
2018-06-15T12:45:15.576Z,20.4
2018-06-15T12:46:15.489Z,20.2
2018-06-15T12:47:15.493Z,20.1
2018-06-15T12:48:15.371Z,20.1
2018-06-15T12:49:15.269Z,20.2
2018-06-15T12:50:15.593Z,20.2
2018-06-15T12:51:15.731Z,20.2
2018-06-15T12:52:15.793Z,19.9
2018-06-15T12:53:15.896Z,20
2018-06-15T12:54:16.178Z,20
2018-06-15T12:55:16.738Z,20.2
2018-06-15T12:56:16.899Z,20.3
2018-06-15T12:57:16.953Z,20.1
2018-06-15T12:58:17.054Z,20.2
2018-06-15T12:59:17.064Z,20.3
2018-06-15T13:00:17.108Z,20.3
2018-06-15T13:01:17.396Z,20.1
2018-06-15T13:02:17.707Z,20.1
2018-06-15T13:03:17.582Z,20.2
2018-06-15T13:04:22.105Z,20.2
2018-06-15T13:05:24.970Z,20.2
2018-06-15T13:06:42.732Z,20.4
2018-06-15T13:07:42.634Z,20.5
2018-06-15T13:08:42.502Z,20.4
2018-06-15T13:09:42.413Z,20.3
2018-06-15T13:10:42.532Z,20.4
2018-06-15T13:11:42.481Z,20.5
2018-06-15T13:12:42.452Z,20.6
2018-06-15T13:13:42.325Z,20.5
2018-06-15T13:14:43.275Z,20.6
2018-06-15T13:15:43.624Z,20.6
2018-06-15T13:16:43.521Z,20.7
2018-06-15T13:17:44.152Z,20.6
2018-06-15T13:18:44.026Z,20.5
2018-06-15T13:19:44.404Z,20.2
2018-06-15T13:20:44.318Z,20.2
2018-06-15T13:21:44.881Z,20.3
2018-06-15T13:22:44.745Z,20.4
2018-06-15T13:23:45.350Z,20.5
2018-06-15T13:24:54.716Z,20.6
2018-06-15T13:25:54.836Z,20.6